RYR8602 EDDB-LICR
Flight info
| Callsign | RYR8602 |
|---|---|
| Flight time | N/A |
| Altitude | 37000 |
| Route | LUROS3A/24R LUROS Y211 BEBKU DCT MAREM DCT APRAQ DCT BUDEX DCT ADLET DCT ROPUS DCT SUXUB DCT SOR Q58 FOSQA |
| Aircraft | B738/M-SDE3FGILRWY/SB1 |
Departure
| Time | N/A |
|---|---|
| Airport | Berlin Brandenburg Airport (EDDB) |
Arrival
| Time | 2026-04-25 21:51 |
|---|---|
| Airport | Reggio Calabria Airport (LICR) |
| Time | Latitude | Longitude | Altitude | Speed | Heading |
|---|---|---|---|---|---|
| 2026-04-25 20:32 | 46.17619 | 14.19548 | 37024 ft | 448 kts | 186° |
| 2026-04-25 20:32 | 46.14498 | 14.19420 | 37021 ft | 447 kts | 186° |
| 2026-04-25 20:33 | 46.08281 | 14.19164 | 37007 ft | 447 kts | 186° |
| 2026-04-25 20:33 | 46.04110 | 14.19028 | 37029 ft | 447 kts | 186° |
| 2026-04-25 20:34 | 45.95853 | 14.18807 | 37042 ft | 448 kts | 186° |
| 2026-04-25 20:34 | 45.89606 | 14.18637 | 37043 ft | 449 kts | 186° |
| 2026-04-25 20:35 | 45.83336 | 14.18462 | 37049 ft | 450 kts | 186° |
| 2026-04-25 20:35 | 45.77089 | 14.18284 | 37046 ft | 452 kts | 186° |
| 2026-04-25 20:36 | 45.70790 | 14.18105 | 37047 ft | 453 kts | 186° |
| 2026-04-25 20:36 | 45.64458 | 14.17927 | 37041 ft | 454 kts | 186° |
| 2026-04-25 20:37 | 45.58163 | 14.17750 | 37054 ft | 455 kts | 186° |
| 2026-04-25 20:37 | 45.51817 | 14.17572 | 37046 ft | 454 kts | 186° |
| 2026-04-25 20:38 | 45.45541 | 14.17397 | 37032 ft | 452 kts | 186° |
| 2026-04-25 20:38 | 45.39263 | 14.17223 | 37047 ft | 450 kts | 186° |
| 2026-04-25 20:39 | 45.33001 | 14.17048 | 37051 ft | 449 kts | 186° |
| 2026-04-25 20:39 | 45.28861 | 14.16932 | 37046 ft | 448 kts | 186° |
| 2026-04-25 20:40 | 45.20572 | 14.16701 | 37030 ft | 446 kts | 186° |
| 2026-04-25 20:40 | 45.15413 | 14.16558 | 37042 ft | 445 kts | 186° |
| 2026-04-25 20:41 | 45.09211 | 14.16386 | 37045 ft | 444 kts | 186° |
| 2026-04-25 20:41 | 45.03020 | 14.16215 | 37034 ft | 444 kts | 186° |
| 2026-04-25 20:42 | 44.96873 | 14.16045 | 37036 ft | 444 kts | 186° |
| 2026-04-25 20:42 | 44.90672 | 14.15874 | 37046 ft | 445 kts | 186° |
| 2026-04-25 20:43 | 44.84455 | 14.15703 | 37036 ft | 446 kts | 186° |
| 2026-04-25 20:43 | 44.78258 | 14.15533 | 37041 ft | 448 kts | 186° |
| 2026-04-25 20:44 | 44.72015 | 14.15362 | 37048 ft | 449 kts | 186° |
| 2026-04-25 20:44 | 44.65761 | 14.15192 | 37048 ft | 449 kts | 185° |
| 2026-04-25 20:45 | 44.59543 | 14.15023 | 37044 ft | 450 kts | 185° |
| 2026-04-25 20:45 | 44.53256 | 14.14853 | 37048 ft | 450 kts | 185° |
| 2026-04-25 20:46 | 44.47042 | 14.14685 | 37031 ft | 450 kts | 185° |
| 2026-04-25 20:46 | 44.40763 | 14.14515 | 37042 ft | 449 kts | 185° |
| 2026-04-25 20:47 | 44.34554 | 14.14348 | 37045 ft | 448 kts | 185° |
| 2026-04-25 20:47 | 44.28295 | 14.14179 | 37031 ft | 448 kts | 185° |
| 2026-04-25 20:48 | 44.22054 | 14.14012 | 37044 ft | 447 kts | 185° |
| 2026-04-25 20:48 | 44.15867 | 14.13846 | 37049 ft | 447 kts | 185° |
| 2026-04-25 20:49 | 44.09643 | 14.13679 | 37041 ft | 446 kts | 185° |
| 2026-04-25 20:49 | 44.03415 | 14.13513 | 37048 ft | 446 kts | 185° |
| 2026-04-25 20:50 | 43.97247 | 14.13349 | 37049 ft | 446 kts | 185° |
| 2026-04-25 20:50 | 43.91030 | 14.13184 | 37052 ft | 446 kts | 185° |
| 2026-04-25 20:51 | 43.84811 | 14.13018 | 37049 ft | 446 kts | 185° |
| 2026-04-25 20:51 | 43.78646 | 14.12855 | 37050 ft | 446 kts | 185° |
| 2026-04-25 20:52 | 43.73427 | 14.12717 | 37034 ft | 446 kts | 184° |
| 2026-04-25 20:52 | 43.66190 | 14.12527 | 37050 ft | 446 kts | 184° |
| 2026-04-25 20:53 | 43.60000 | 14.12364 | 37047 ft | 447 kts | 184° |
| 2026-04-25 20:53 | 43.53769 | 14.12200 | 37040 ft | 447 kts | 184° |
| 2026-04-25 20:54 | 43.47557 | 14.12037 | 37055 ft | 448 kts | 184° |
| 2026-04-25 20:54 | 43.41307 | 14.11874 | 37045 ft | 448 kts | 184° |
| 2026-04-25 20:55 | 43.35091 | 14.11712 | 37058 ft | 449 kts | 184° |
| 2026-04-25 20:55 | 43.28831 | 14.11549 | 37058 ft | 449 kts | 183° |
| 2026-04-25 20:56 | 43.22575 | 14.11386 | 37059 ft | 449 kts | 183° |
| 2026-04-25 20:56 | 43.16345 | 14.11225 | 37056 ft | 450 kts | 183° |
| 2026-04-25 20:57 | 43.10076 | 14.11063 | 37057 ft | 450 kts | 183° |
| 2026-04-25 20:57 | 43.03808 | 14.10901 | 37061 ft | 449 kts | 183° |
| 2026-04-25 20:58 | 42.97590 | 14.10741 | 37063 ft | 449 kts | 183° |
| 2026-04-25 20:58 | 42.91329 | 14.10580 | 37050 ft | 449 kts | 183° |
| 2026-04-25 20:59 | 42.85076 | 14.10419 | 37057 ft | 449 kts | 183° |
| 2026-04-25 20:59 | 42.78821 | 14.10259 | 37063 ft | 449 kts | 183° |
| 2026-04-25 21:00 | 42.74684 | 14.10153 | 37047 ft | 448 kts | 182° |
| 2026-04-25 21:01 | 42.63256 | 14.09862 | 37045 ft | 448 kts | 182° |
| 2026-04-25 21:01 | 42.57014 | 14.09703 | 37049 ft | 447 kts | 182° |
| 2026-04-25 21:02 | 42.50822 | 14.09546 | 37055 ft | 447 kts | 182° |
| 2026-04-25 21:02 | 42.44596 | 14.09388 | 37055 ft | 447 kts | 182° |
| 2026-04-25 21:03 | 42.38375 | 14.09231 | 37052 ft | 446 kts | 182° |
| 2026-04-25 21:03 | 42.32160 | 14.09074 | 37062 ft | 446 kts | 182° |
| 2026-04-25 21:04 | 42.25988 | 14.08918 | 37050 ft | 446 kts | 182° |
| 2026-04-25 21:04 | 42.19782 | 14.08763 | 37064 ft | 446 kts | 182° |
| 2026-04-25 21:05 | 42.13562 | 14.08606 | 37096 ft | 445 kts | 182° |
| 2026-04-25 21:05 | 42.07390 | 14.08452 | 37101 ft | 445 kts | 182° |
| 2026-04-25 21:06 | 42.01180 | 14.08296 | 37090 ft | 445 kts | 182° |
| 2026-04-25 21:06 | 41.95012 | 14.08143 | 37089 ft | 446 kts | 182° |
| 2026-04-25 21:07 | 41.88804 | 14.07999 | 37107 ft | 445 kts | 181° |
| 2026-04-25 21:07 | 41.82624 | 14.08895 | 37100 ft | 446 kts | 172° |
| 2026-04-25 21:08 | 41.76525 | 14.10213 | 37102 ft | 446 kts | 172° |
| 2026-04-25 21:08 | 41.70390 | 14.11508 | 37118 ft | 446 kts | 172° |
| 2026-04-25 21:09 | 41.61166 | 14.13366 | 37120 ft | 446 kts | 172° |
| 2026-04-25 21:09 | 41.55053 | 14.14578 | 37110 ft | 446 kts | 172° |
| 2026-04-25 21:10 | 41.48913 | 14.15793 | 37111 ft | 445 kts | 172° |
| 2026-04-25 21:10 | 41.42805 | 14.17001 | 37106 ft | 445 kts | 172° |
| 2026-04-25 21:11 | 41.36672 | 14.18212 | 37117 ft | 445 kts | 172° |
| 2026-04-25 21:11 | 41.30543 | 14.19421 | 37109 ft | 445 kts | 172° |
| 2026-04-25 21:12 | 41.24411 | 14.20627 | 37112 ft | 444 kts | 172° |
| 2026-04-25 21:12 | 41.19317 | 14.21627 | 37093 ft | 444 kts | 172° |
| 2026-04-25 21:13 | 41.12205 | 14.23022 | 37111 ft | 444 kts | 172° |
| 2026-04-25 21:13 | 41.06078 | 14.24220 | 37097 ft | 444 kts | 172° |
| 2026-04-25 21:14 | 40.99967 | 14.25414 | 37129 ft | 443 kts | 172° |
| 2026-04-25 21:14 | 40.93898 | 14.26597 | 37140 ft | 443 kts | 172° |
| 2026-04-25 21:15 | 40.87795 | 14.27784 | 37139 ft | 442 kts | 171° |
| 2026-04-25 21:15 | 40.81689 | 14.28970 | 37130 ft | 442 kts | 171° |
| 2026-04-25 21:16 | 40.75620 | 14.30146 | 37110 ft | 443 kts | 171° |
| 2026-04-25 21:16 | 40.69514 | 14.31327 | 37115 ft | 443 kts | 171° |
| 2026-04-25 21:17 | 40.63438 | 14.32501 | 37122 ft | 443 kts | 171° |
| 2026-04-25 21:17 | 40.57336 | 14.33779 | 37107 ft | 443 kts | 165° |
| 2026-04-25 21:18 | 40.51430 | 14.36130 | 37116 ft | 443 kts | 162° |
| 2026-04-25 21:18 | 40.45588 | 14.38637 | 37126 ft | 444 kts | 162° |
| 2026-04-25 21:19 | 40.39701 | 14.41115 | 37127 ft | 444 kts | 162° |
| 2026-04-25 21:19 | 40.33835 | 14.43536 | 37129 ft | 444 kts | 162° |
| 2026-04-25 21:20 | 40.29883 | 14.45154 | 37119 ft | 444 kts | 162° |
| 2026-04-25 21:20 | 40.22009 | 14.48367 | 37116 ft | 444 kts | 162° |
| 2026-04-25 21:21 | 40.16153 | 14.50753 | 37141 ft | 444 kts | 162° |
| 2026-04-25 21:21 | 40.10241 | 14.53159 | 37125 ft | 444 kts | 162° |
| 2026-04-25 21:22 | 40.04335 | 14.55557 | 37130 ft | 444 kts | 162° |
| 2026-04-25 21:22 | 39.98422 | 14.57954 | 37127 ft | 445 kts | 162° |
| 2026-04-25 21:23 | 39.92541 | 14.60334 | 37146 ft | 445 kts | 162° |
| 2026-04-25 21:23 | 39.86612 | 14.62730 | 37128 ft | 445 kts | 162° |
| 2026-04-25 21:24 | 39.83638 | 14.63929 | 36832 ft | 450 kts | 162° |
| 2026-04-25 21:24 | 39.80642 | 14.65138 | 36354 ft | 449 kts | 162° |
| 2026-04-25 21:24 | 39.77693 | 14.66325 | 35768 ft | 449 kts | 162° |
| 2026-04-25 21:24 | 39.74701 | 14.67529 | 35145 ft | 449 kts | 162° |
| 2026-04-25 21:25 | 39.71718 | 14.68728 | 34520 ft | 450 kts | 163° |
| 2026-04-25 21:25 | 39.68709 | 14.69936 | 33833 ft | 451 kts | 163° |
| 2026-04-25 21:25 | 39.65708 | 14.71140 | 33103 ft | 452 kts | 163° |
| 2026-04-25 21:25 | 39.62749 | 14.72326 | 32658 ft | 447 kts | 163° |
| 2026-04-25 21:26 | 39.59789 | 14.73511 | 32153 ft | 443 kts | 163° |
| 2026-04-25 21:26 | 39.56855 | 14.74686 | 31681 ft | 439 kts | 163° |
| 2026-04-25 21:26 | 39.53938 | 14.75852 | 31215 ft | 435 kts | 163° |
| 2026-04-25 21:26 | 39.51055 | 14.77003 | 30761 ft | 432 kts | 163° |
| 2026-04-25 21:27 | 39.48219 | 14.78135 | 30316 ft | 429 kts | 163° |
| 2026-04-25 21:27 | 39.45375 | 14.79269 | 29808 ft | 426 kts | 163° |
| 2026-04-25 21:27 | 39.43497 | 14.80017 | 29459 ft | 423 kts | 163° |
| 2026-04-25 21:27 | 39.39753 | 14.81508 | 28830 ft | 418 kts | 163° |
| 2026-04-25 21:28 | 39.37917 | 14.82238 | 28519 ft | 415 kts | 163° |
| 2026-04-25 21:28 | 39.35168 | 14.83331 | 28052 ft | 412 kts | 163° |
| 2026-04-25 21:28 | 39.32435 | 14.84416 | 27590 ft | 408 kts | 163° |
| 2026-04-25 21:28 | 39.29719 | 14.85494 | 27133 ft | 405 kts | 163° |
| 2026-04-25 21:29 | 39.27064 | 14.86547 | 26687 ft | 403 kts | 163° |
| 2026-04-25 21:29 | 39.24390 | 14.87606 | 26241 ft | 400 kts | 163° |
| 2026-04-25 21:29 | 39.21732 | 14.88659 | 25799 ft | 397 kts | 163° |
| 2026-04-25 21:29 | 39.19087 | 14.89705 | 25356 ft | 395 kts | 163° |
| 2026-04-25 21:30 | 39.16485 | 14.90734 | 24919 ft | 393 kts | 163° |
| 2026-04-25 21:30 | 39.13869 | 14.91768 | 24486 ft | 392 kts | 163° |
| 2026-04-25 21:30 | 39.11264 | 14.92795 | 24032 ft | 391 kts | 162° |
| 2026-04-25 21:30 | 39.09541 | 14.93475 | 23746 ft | 390 kts | 162° |
| 2026-04-25 21:31 | 39.06079 | 14.94839 | 23063 ft | 387 kts | 162° |
| 2026-04-25 21:31 | 39.03539 | 14.95840 | 22612 ft | 385 kts | 162° |
| 2026-04-25 21:31 | 39.00986 | 14.96844 | 22157 ft | 382 kts | 162° |
| 2026-04-25 21:31 | 38.98447 | 14.97842 | 21719 ft | 379 kts | 162° |
| 2026-04-25 21:32 | 38.95930 | 14.98831 | 21291 ft | 376 kts | 162° |
| 2026-04-25 21:32 | 38.93433 | 14.99812 | 20865 ft | 374 kts | 162° |
| 2026-04-25 21:32 | 38.90944 | 15.00788 | 20441 ft | 372 kts | 162° |
| 2026-04-25 21:32 | 38.88467 | 15.01760 | 20007 ft | 370 kts | 162° |
| 2026-04-25 21:33 | 38.86038 | 15.02712 | 19601 ft | 368 kts | 162° |
| 2026-04-25 21:33 | 38.83595 | 15.03668 | 19192 ft | 367 kts | 162° |
| 2026-04-25 21:33 | 38.81151 | 15.04625 | 18767 ft | 366 kts | 162° |
| 2026-04-25 21:33 | 38.78713 | 15.05578 | 18319 ft | 365 kts | 162° |
| 2026-04-25 21:34 | 38.76279 | 15.06529 | 17855 ft | 363 kts | 162° |
| 2026-04-25 21:34 | 38.73894 | 15.07460 | 17424 ft | 361 kts | 162° |
| 2026-04-25 21:34 | 38.71516 | 15.08463 | 16992 ft | 358 kts | 156° |
| 2026-04-25 21:34 | 38.69321 | 15.09945 | 16573 ft | 355 kts | 146° |
| 2026-04-25 21:35 | 38.67378 | 15.11877 | 16140 ft | 352 kts | 139° |
| 2026-04-25 21:35 | 38.65515 | 15.13909 | 15719 ft | 351 kts | 139° |
| 2026-04-25 21:35 | 38.63664 | 15.15941 | 15306 ft | 349 kts | 139° |
| 2026-04-25 21:35 | 38.61843 | 15.17929 | 14904 ft | 347 kts | 139° |
| 2026-04-25 21:36 | 38.60003 | 15.19922 | 14504 ft | 345 kts | 139° |
| 2026-04-25 21:36 | 38.58168 | 15.21900 | 14102 ft | 344 kts | 139° |
| 2026-04-25 21:36 | 38.56335 | 15.23869 | 13679 ft | 342 kts | 139° |
| 2026-04-25 21:36 | 38.54534 | 15.25799 | 13254 ft | 341 kts | 139° |
| 2026-04-25 21:37 | 38.52724 | 15.27736 | 12845 ft | 338 kts | 139° |
| 2026-04-25 21:37 | 38.51504 | 15.29039 | 12576 ft | 337 kts | 139° |
| 2026-04-25 21:37 | 38.48931 | 15.31246 | 12046 ft | 335 kts | 150° |
| 2026-04-25 21:37 | 38.46865 | 15.32621 | 11648 ft | 333 kts | 152° |
| 2026-04-25 21:38 | 38.44794 | 15.33950 | 11257 ft | 331 kts | 152° |
| 2026-04-25 21:38 | 38.42745 | 15.35281 | 10827 ft | 331 kts | 151° |
| 2026-04-25 21:38 | 38.40713 | 15.36624 | 10615 ft | 324 kts | 151° |
| 2026-04-25 21:38 | 38.38757 | 15.37934 | 10434 ft | 316 kts | 150° |
| 2026-04-25 21:39 | 38.36833 | 15.39234 | 10288 ft | 307 kts | 150° |
| 2026-04-25 21:39 | 38.34968 | 15.40499 | 10154 ft | 299 kts | 150° |
| 2026-04-25 21:39 | 38.33181 | 15.41712 | 10020 ft | 291 kts | 150° |
| 2026-04-25 21:39 | 38.31402 | 15.42920 | 9722 ft | 289 kts | 150° |
| 2026-04-25 21:40 | 38.29630 | 15.44123 | 9440 ft | 286 kts | 150° |
| 2026-04-25 21:40 | 38.27873 | 15.45310 | 9153 ft | 284 kts | 150° |
| 2026-04-25 21:40 | 38.26123 | 15.46480 | 8871 ft | 282 kts | 151° |
| 2026-04-25 21:40 | 38.24387 | 15.47637 | 8594 ft | 281 kts | 151° |
| 2026-04-25 21:41 | 38.22659 | 15.48788 | 8309 ft | 280 kts | 151° |
| 2026-04-25 21:41 | 38.20957 | 15.49923 | 8027 ft | 278 kts | 151° |
| 2026-04-25 21:41 | 38.19244 | 15.51065 | 7748 ft | 276 kts | 151° |
| 2026-04-25 21:41 | 38.17543 | 15.52198 | 7470 ft | 275 kts | 151° |
| 2026-04-25 21:42 | 38.15848 | 15.53326 | 7195 ft | 274 kts | 151° |
| 2026-04-25 21:42 | 38.14163 | 15.54408 | 6913 ft | 274 kts | 158° |
| 2026-04-25 21:42 | 38.12289 | 15.54757 | 6639 ft | 274 kts | 181° |
| 2026-04-25 21:42 | 38.10389 | 15.54668 | 6356 ft | 273 kts | 182° |
| 2026-04-25 21:43 | 38.08484 | 15.54575 | 5995 ft | 275 kts | 182° |
| 2026-04-25 21:43 | 38.06580 | 15.54486 | 5775 ft | 271 kts | 182° |
| 2026-04-25 21:43 | 38.04713 | 15.54404 | 5639 ft | 264 kts | 182° |
| 2026-04-25 21:43 | 38.02921 | 15.54329 | 5499 ft | 258 kts | 182° |
| 2026-04-25 21:44 | 38.01150 | 15.54258 | 5392 ft | 250 kts | 182° |
| 2026-04-25 21:44 | 37.99449 | 15.54191 | 5321 ft | 238 kts | 183° |
| 2026-04-25 21:44 | 37.96272 | 15.54069 | 4991 ft | 220 kts | 184° |
| 2026-04-25 21:45 | 37.94768 | 15.54011 | 4791 ft | 213 kts | 183° |
| 2026-04-25 21:45 | 37.93793 | 15.53973 | 4649 ft | 209 kts | 183° |
| 2026-04-25 21:45 | 37.91863 | 15.53913 | 4398 ft | 207 kts | 178° |
| 2026-04-25 21:45 | 37.90533 | 15.54529 | 4168 ft | 207 kts | 136° |
| 2026-04-25 21:46 | 37.89858 | 15.56041 | 3981 ft | 200 kts | 97° |
| 2026-04-25 21:46 | 37.89857 | 15.57801 | 3831 ft | 201 kts | 81° |
| 2026-04-25 21:46 | 37.90114 | 15.59559 | 3584 ft | 202 kts | 64° |
| 2026-04-25 21:46 | 37.91021 | 15.60817 | 3348 ft | 192 kts | 23° |
| 2026-04-25 21:47 | 37.92245 | 15.61373 | 3180 ft | 187 kts | 15° |
| 2026-04-25 21:47 | 37.93465 | 15.61893 | 2977 ft | 182 kts | 17° |
| 2026-04-25 21:47 | 37.94651 | 15.62399 | 2793 ft | 177 kts | 16° |
| 2026-04-25 21:47 | 37.95831 | 15.62892 | 2549 ft | 180 kts | 15° |
| 2026-04-25 21:48 | 37.97019 | 15.63378 | 2271 ft | 179 kts | 16° |
| 2026-04-25 21:48 | 37.98174 | 15.63851 | 2016 ft | 169 kts | 16° |
| 2026-04-25 21:48 | 37.99249 | 15.64288 | 1772 ft | 154 kts | 11° |
| 2026-04-25 21:48 | 38.00239 | 15.64554 | 1561 ft | 142 kts | 7° |
| 2026-04-25 21:49 | 38.01173 | 15.64856 | 1267 ft | 137 kts | 9° |
| 2026-04-25 21:49 | 38.02102 | 15.65145 | 1048 ft | 140 kts | 8° |
| 2026-04-25 21:49 | 38.03065 | 15.65381 | 846 ft | 139 kts | 7° |
| 2026-04-25 21:49 | 38.04003 | 15.65569 | 629 ft | 137 kts | 6° |
| 2026-04-25 21:50 | 38.04935 | 15.65730 | 425 ft | 133 kts | 7° |
| 2026-04-25 21:50 | 38.05882 | 15.65780 | 246 ft | 139 kts | 355° |
| 2026-04-25 21:50 | 38.06789 | 15.65356 | 46 ft | 137 kts | 336° |
| 2026-04-25 21:50 | 38.07310 | 15.65032 | 48 ft | 109 kts | 334° |
| 2026-04-25 21:51 | 38.07838 | 15.64693 | 62 ft | 26 kts | 333° |
| 2026-04-25 21:51 | 38.07898 | 15.64632 | 69 ft | 4 kts | 342° |
| 2026-04-25 21:51 | 38.07903 | 15.64654 | 71 ft | 3 kts | 130° |
| 2026-04-25 21:51 | 38.07859 | 15.64682 | 64 ft | 12 kts | 153° |
| 2026-04-25 21:52 | 38.07747 | 15.64755 | 59 ft | 24 kts | 153° |
| 2026-04-25 21:52 | 38.07575 | 15.64864 | 56 ft | 31 kts | 153° |
| 2026-04-25 21:52 | 38.07391 | 15.64983 | 51 ft | 28 kts | 153° |
| 2026-04-25 21:52 | 38.07290 | 15.65058 | 47 ft | 10 kts | 125° |
| 2026-04-25 21:53 | 38.07305 | 15.65140 | 48 ft | 10 kts | 62° |
| 2026-04-25 21:53 | 38.07336 | 15.65216 | 48 ft | 10 kts | 62° |
| 2026-04-25 21:53 | 38.07364 | 15.65285 | 48 ft | 5 kts | 63° |
| 2026-04-25 21:53 | 38.07364 | 15.65296 | 46 ft | 0 kts | 112° |
| 2026-04-25 21:54 | 38.07361 | 15.65302 | 48 ft | 0 kts | 118° |